Strona główna
METAR-TAF:

METAR-TAF

Lotnisko :

Port lotniczy Parnawa

Parnawa, Estonia

Szerokość geograficzna: 58-25-09N, Długość geograficzna: 024-28-22E, wysokość: 14 m

Aktualna obserwacja pogody

Raport powstał 5 godziny i 20 minut temu, godzina 13:50 UTC
Wiatr 9 kt od południowy zachód
Temperatura 3°C
Wilgotność 81%
Ciśnienie 1014 hPa
Widzialność 10 km lub więcej
Rozproszone chmury na wysokości 2000 ft

METAR: EEPU 201350Z 22009KT 9999 SCT020 03/M00 Q1014

czas: 21:10 (19:10 UTC)


TAF: brakujący

Obserwacja i prognoza pogody dla ponad 4000 lotnisk (raport METAR i TAF).

Dostępne stacje oznaczono żółtymi i czerwonymi punktami na mapie.

Najedź kursorem aby zobaczyć nazwę stacji.

Kliknij aby zobaczyć obserwacje i prognozy pogody.

Aby zmienić mapę: kliknij na zielony przycisk z czarnym krzyżykiem, aby powiększyć; na zielony przycisk z myślnikiem, aby pomniejszyć; na zielone strzałki, aby przejść do map sąsiednich.


METAR-TAF: